Zhang Ping, China
Current Conditions -  °F | °C
As of 2:00 AM on Friday 28 Nov 2014 (Local Time) from ZSAM Reporting Station
Haze Haze  
Wind Chill: 68°   Ceiling: Unl
Heat Index: 68°   Visibility: 1.8mi
Dew Point: 68°   Wind: 2mph
Humidity: 100%   Direction: 260°W
Pressure: 30"   Gusts: NA
Location:  25.3°N, 117.4°E
Report Text: ZSAM 271800Z 26001MPS 3000 BR SCT050 20/20 Q1016 BECMGTL19302800 BR
Loading
Personal Weather Stations






























Interactive Weather Map New forecast layout! Learn more

10-Day Weather Forecast

Advertisements
Track Severe Weather on mobile